createdAt,value
2017-07-10T00:00:57.014Z,81.28
2017-07-10T00:01:56.991Z,81.38
2017-07-10T00:02:56.665Z,81.38
2017-07-10T00:03:56.951Z,81.19
2017-07-10T00:04:56.938Z,81.09
2017-07-10T00:05:56.909Z,80.96
2017-07-10T00:06:56.634Z,81.24
2017-07-10T00:07:56.873Z,81.63
2017-07-10T00:08:56.851Z,81.34
2017-07-10T00:09:56.837Z,80.96
2017-07-10T00:10:56.844Z,81.63
2017-07-10T00:11:56.794Z,81.82
2017-07-10T00:12:56.779Z,81.86
2017-07-10T00:13:56.448Z,81.57
2017-07-10T00:14:56.734Z,81.72
2017-07-10T00:15:56.715Z,81.67
2017-07-10T00:16:56.696Z,81.63
2017-07-10T00:17:56.675Z,81.43
2017-07-10T00:18:56.658Z,81.72
2017-07-10T00:19:56.636Z,82.1
2017-07-10T00:20:56.622Z,82.2
2017-07-10T00:21:56.600Z,82.01
2017-07-10T00:22:56.578Z,82.01
2017-07-10T00:23:56.555Z,82.49
2017-07-10T00:24:56.588Z,82.4
2017-07-10T00:25:56.515Z,82.01
2017-07-10T00:26:56.500Z,82.4
2017-07-10T00:27:56.478Z,82.78
2017-07-10T00:28:56.462Z,82.3
2017-07-10T00:29:56.440Z,82.49
2017-07-10T00:30:56.419Z,82.3
2017-07-10T00:31:56.404Z,82.3
2017-07-10T00:32:56.379Z,82.4
2017-07-10T00:33:56.362Z,82.2
2017-07-10T00:34:56.030Z,82.49
2017-07-10T00:35:56.331Z,82.68
2017-07-10T00:36:56.309Z,82.68
2017-07-10T00:37:56.279Z,82.4
2017-07-10T00:38:56.267Z,82.4
2017-07-10T00:39:56.243Z,82.49
2017-07-10T00:40:56.223Z,82.4
2017-07-10T00:41:55.892Z,82.4
2017-07-10T00:42:56.182Z,82.68
2017-07-10T00:43:56.162Z,82.59
2017-07-10T00:44:56.147Z,82.68
2017-07-10T00:45:56.126Z,82.4
2017-07-10T00:46:56.104Z,82.68
2017-07-10T00:47:56.081Z,82.59
2017-07-10T00:48:56.066Z,82.68
2017-07-10T00:49:56.044Z,82.68
2017-07-10T00:50:56.024Z,82.68
2017-07-10T00:51:56.014Z,82.68
2017-07-10T00:52:55.989Z,82.68
2017-07-10T00:53:55.978Z,83.36
2017-07-10T00:54:55.951Z,82.68
2017-07-10T00:55:55.934Z,83.26
2017-07-10T00:56:55.912Z,82.59
2017-07-10T00:57:55.577Z,82.49
2017-07-10T00:58:55.882Z,82.87
2017-07-10T00:59:55.848Z,83.07
2017-07-10T01:00:55.831Z,82.87
2017-07-10T01:01:55.810Z,82.59
2017-07-10T01:02:55.787Z,83.26
2017-07-10T01:03:55.767Z,82.49
2017-07-10T01:04:55.748Z,82.68
2017-07-10T01:05:55.733Z,82.49
2017-07-10T01:06:55.397Z,83.26
2017-07-10T01:07:55.380Z,83.16
2017-07-10T01:08:55.675Z,82.78
2017-07-10T01:09:55.650Z,83.26
2017-07-10T01:10:55.627Z,82.97
2017-07-10T01:11:55.628Z,82.49
2017-07-10T01:12:55.591Z,83.07
2017-07-10T01:13:55.568Z,82.97
2017-07-10T01:14:55.240Z,82.4
2017-07-10T01:15:55.529Z,82.3
2017-07-10T01:16:55.507Z,82.59
2017-07-10T01:17:55.492Z,82.4
2017-07-10T01:18:55.165Z,82.3
2017-07-10T01:19:55.454Z,82.2
2017-07-10T01:20:55.687Z,82.3
2017-07-10T01:21:55.406Z,82.49
2017-07-10T01:22:55.390Z,82.78
2017-07-10T01:23:55.367Z,82.59
2017-07-10T01:24:55.351Z,83.16
2017-07-10T01:25:55.330Z,82.4
2017-07-10T01:26:55.315Z,82.68
2017-07-10T01:27:55.295Z,82.3
2017-07-10T01:28:55.273Z,82.3
2017-07-10T01:29:55.255Z,82.3
2017-07-10T01:30:55.285Z,82.4
2017-07-10T01:31:55.211Z,82.4
2017-07-10T01:32:55.196Z,83.16
2017-07-10T01:33:55.171Z,83.26
2017-07-10T01:34:55.153Z,83.07
2017-07-10T01:35:55.132Z,82.68
2017-07-10T01:36:55.118Z,82.49
2017-07-10T01:37:55.096Z,82.49
2017-07-10T01:38:55.071Z,82.68
2017-07-10T01:39:55.055Z,82.68
2017-07-10T01:40:54.776Z,82.59
2017-07-10T01:41:55.017Z,82.68
2017-07-10T01:42:54.683Z,82.68
2017-07-10T01:43:54.981Z,82.68
2017-07-10T01:44:54.955Z,82.4
2017-07-10T01:45:54.935Z,82.49
2017-07-10T01:46:54.919Z,82.49
2017-07-10T01:47:54.907Z,82.59
2017-07-10T01:48:54.874Z,82.78
2017-07-10T01:49:54.857Z,82.3
2017-07-10T01:50:54.837Z,82.3
2017-07-10T01:51:54.816Z,82.68
2017-07-10T01:52:54.803Z,82.68
2017-07-10T01:53:54.784Z,82.2
2017-07-10T01:54:54.762Z,82.3
2017-07-10T01:55:54.735Z,82.4
2017-07-10T01:56:54.413Z,82.4
2017-07-10T01:57:54.699Z,82.2
2017-07-10T01:58:54.673Z,82.49
2017-07-10T01:59:54.665Z,82.49
2017-07-10T02:00:54.329Z,82.64
2017-07-10T02:01:54.618Z,83.36
2017-07-10T02:02:54.597Z,83.03
2017-07-10T02:03:54.588Z,82.26
2017-07-10T02:04:54.248Z,82.26
2017-07-10T02:05:54.543Z,82.35
2017-07-10T02:06:54.518Z,82.93
2017-07-10T02:07:54.497Z,82.26
2017-07-10T02:08:54.478Z,82.35
2017-07-10T02:09:54.452Z,82.93
2017-07-10T02:10:54.129Z,82.84
2017-07-10T02:11:54.670Z,82.93
2017-07-10T02:12:54.399Z,83.03
2017-07-10T02:13:54.379Z,83.03
2017-07-10T02:14:54.358Z,82.84
2017-07-10T02:15:54.341Z,82.84
2017-07-10T02:16:54.370Z,83.03
2017-07-10T02:17:54.301Z,82.93
2017-07-10T02:18:54.285Z,83.03
2017-07-10T02:19:54.256Z,82.84
2017-07-10T02:20:54.237Z,83.41
2017-07-10T02:21:54.220Z,83.03
2017-07-10T02:22:54.198Z,83.22
2017-07-10T02:23:54.177Z,83.12
2017-07-10T02:24:54.158Z,83.12
2017-07-10T02:25:54.191Z,83.51
2017-07-10T02:26:54.128Z,82.84
2017-07-10T02:27:54.168Z,83.41
2017-07-10T02:28:54.077Z,83.12
2017-07-10T02:29:54.060Z,83.41
2017-07-10T02:30:54.040Z,82.64
2017-07-10T02:31:54.017Z,83.03
2017-07-10T02:32:53.996Z,82.84
2017-07-10T02:33:53.979Z,82.93
2017-07-10T02:34:53.957Z,83.12
2017-07-10T02:35:53.939Z,83.41
2017-07-10T02:36:53.917Z,83.12
2017-07-10T02:37:53.896Z,82.93
2017-07-10T02:38:53.875Z,82.45
2017-07-10T02:39:53.552Z,82.64
2017-07-10T02:40:53.842Z,82.45
2017-07-10T02:41:53.817Z,82.54
2017-07-10T02:42:53.801Z,82.64
2017-07-10T02:43:53.473Z,82.54
2017-07-10T02:44:53.763Z,82.54
2017-07-10T02:45:53.745Z,82.64
2017-07-10T02:46:53.720Z,82.26
2017-07-10T02:47:53.700Z,82.45
2017-07-10T02:48:53.683Z,82.45
2017-07-10T02:49:53.664Z,82.64
2017-07-10T02:50:53.641Z,82.64
2017-07-10T02:51:53.617Z,82.45
2017-07-10T02:52:53.601Z,82.54
2017-07-10T02:53:53.582Z,82.45
2017-07-10T02:54:53.560Z,82.64
2017-07-10T02:55:53.548Z,82.74
2017-07-10T02:56:53.218Z,82.26
2017-07-10T02:57:53.500Z,82.64
2017-07-10T02:58:53.531Z,82.26
2017-07-10T02:59:53.458Z,82.35
2017-07-10T03:00:53.444Z,82.45
2017-07-10T03:01:53.490Z,82.64
2017-07-10T03:02:53.402Z,82.64
2017-07-10T03:03:53.379Z,82.45
2017-07-10T03:04:53.360Z,82.16
2017-07-10T03:05:53.339Z,82.84
2017-07-10T03:06:53.323Z,82.84
2017-07-10T03:07:53.306Z,83.12
2017-07-10T03:08:52.971Z,83.08
2017-07-10T03:09:53.262Z,82.51
2017-07-10T03:10:53.691Z,82.6
2017-07-10T03:11:53.217Z,82.79
2017-07-10T03:12:53.200Z,83.08
2017-07-10T03:13:53.181Z,82.6
2017-07-10T03:14:53.161Z,83.08
2017-07-10T03:15:53.246Z,82.79
2017-07-10T03:16:53.119Z,82.89
2017-07-10T03:17:53.098Z,82.79
2017-07-10T03:18:53.082Z,83.51
2017-07-10T03:19:53.051Z,83.22
2017-07-10T03:20:53.056Z,83.41
2017-07-10T03:21:53.019Z,82.98
2017-07-10T03:22:52.689Z,82.93
2017-07-10T03:23:52.978Z,82.84
2017-07-10T03:24:53.008Z,82.84
2017-07-10T03:25:52.940Z,83.03
2017-07-10T03:26:52.917Z,82.35
2017-07-10T03:27:52.902Z,83.03
2017-07-10T03:28:52.881Z,83.12
2017-07-10T03:29:52.909Z,82.54
2017-07-10T03:30:52.841Z,82.26
2017-07-10T03:31:52.835Z,83.03
2017-07-10T03:32:52.797Z,82.45
2017-07-10T03:33:52.778Z,82.54
2017-07-10T03:34:52.805Z,82.35
2017-07-10T03:35:52.743Z,82.64
2017-07-10T03:36:52.871Z,82.64
2017-07-10T03:37:52.698Z,82.45
2017-07-10T03:38:52.676Z,83.31
2017-07-10T03:39:52.353Z,82.26
2017-07-10T03:40:52.640Z,83.22
2017-07-10T03:41:52.615Z,83.12
2017-07-10T03:42:52.596Z,82.64
2017-07-10T03:43:52.632Z,83.22
2017-07-10T03:44:52.555Z,82.64
2017-07-10T03:45:52.539Z,82.35
2017-07-10T03:46:52.565Z,82.74
2017-07-10T03:47:52.495Z,83.12
2017-07-10T03:48:52.476Z,83.51
2017-07-10T03:49:52.461Z,82.64
2017-07-10T03:50:52.437Z,82.45
2017-07-10T03:51:52.418Z,82.74
2017-07-10T03:52:52.393Z,83.12
2017-07-10T03:53:52.378Z,82.54
2017-07-10T03:54:52.359Z,83.12
2017-07-10T03:55:52.347Z,82.45
2017-07-10T03:56:52.316Z,82.26
2017-07-10T03:57:52.300Z,83.12
2017-07-10T03:58:51.966Z,82.35
2017-07-10T03:59:52.262Z,82.89
2017-07-10T04:00:52.238Z,83.08
2017-07-10T04:01:52.221Z,82.89
2017-07-10T04:02:52.197Z,82.6
2017-07-10T04:03:52.178Z,82.98
2017-07-10T04:04:52.159Z,83.18
2017-07-10T04:05:52.137Z,82.98
2017-07-10T04:06:51.810Z,83.08
2017-07-10T04:07:52.098Z,83.08
2017-07-10T04:08:52.078Z,83.27
2017-07-10T04:09:51.750Z,83.65
2017-07-10T04:10:52.036Z,83.65
2017-07-10T04:11:52.026Z,84.14
2017-07-10T04:12:51.997Z,83.75
2017-07-10T04:13:51.983Z,83.65
2017-07-10T04:14:51.961Z,83.65
2017-07-10T04:15:51.941Z,83.65
2017-07-10T04:16:51.922Z,83.37
2017-07-10T04:17:51.903Z,83.12
2017-07-10T04:18:51.876Z,83.27
2017-07-10T04:19:51.858Z,82.93
2017-07-10T04:20:51.840Z,83.18
2017-07-10T04:21:51.814Z,83.22
2017-07-10T04:22:51.797Z,83.03
2017-07-10T04:23:51.467Z,83.03
2017-07-10T04:24:51.448Z,83.03
2017-07-10T04:25:51.745Z,83.03
2017-07-10T04:26:51.716Z,83.03
2017-07-10T04:27:51.707Z,83.12
2017-07-10T04:28:51.732Z,83.12
2017-07-10T04:29:51.658Z,83.12
2017-07-10T04:30:51.333Z,82.84
2017-07-10T04:31:51.624Z,82.84
2017-07-10T04:32:51.598Z,82.93
2017-07-10T04:33:51.579Z,82.93
2017-07-10T04:34:51.556Z,82.93
2017-07-10T04:35:51.543Z,83.03
2017-07-10T04:36:51.522Z,83.12
2017-07-10T04:37:51.499Z,83.12
2017-07-10T04:38:51.483Z,83.41
2017-07-10T04:39:51.464Z,82.64
2017-07-10T04:40:51.439Z,82.93
2017-07-10T04:41:51.417Z,82.93
2017-07-10T04:42:51.454Z,82.74
2017-07-10T04:43:51.379Z,83.41
2017-07-10T04:44:51.360Z,83.22
2017-07-10T04:45:51.353Z,83.31
2017-07-10T04:46:51.323Z,83.31
2017-07-10T04:47:51.306Z,83.41
2017-07-10T04:48:51.281Z,83.41
2017-07-10T04:49:51.266Z,83.12
2017-07-10T04:50:50.934Z,82.84
2017-07-10T04:51:51.221Z,83.22
2017-07-10T04:52:51.200Z,83.12
2017-07-10T04:53:51.187Z,83.51
2017-07-10T04:54:51.161Z,83.31
2017-07-10T04:55:51.144Z,82.93
2017-07-10T04:56:51.123Z,82.93
2017-07-10T04:57:51.103Z,83.03
2017-07-10T04:58:51.088Z,83.03
2017-07-10T04:59:51.069Z,83.03
2017-07-10T05:00:51.047Z,82.93
2017-07-10T05:01:51.025Z,83.41
2017-07-10T05:02:51.008Z,83.12
2017-07-10T05:03:50.983Z,83.22
2017-07-10T05:04:50.966Z,83.12
2017-07-10T05:05:50.947Z,83.12
2017-07-10T05:06:50.615Z,83.89
2017-07-10T05:07:50.909Z,83.8
2017-07-10T05:08:50.574Z,83.7
2017-07-10T05:09:50.556Z,83.89
2017-07-10T05:10:50.872Z,83.31
2017-07-10T05:11:50.831Z,83.8
2017-07-10T05:12:50.854Z,83.41
2017-07-10T05:13:50.794Z,83.8
2017-07-10T05:14:50.769Z,83.41
2017-07-10T05:15:50.751Z,83.51
2017-07-10T05:16:50.725Z,83.6
2017-07-10T05:17:50.705Z,83.89
2017-07-10T05:18:50.688Z,83.98
2017-07-10T05:19:50.665Z,83.89
2017-07-10T05:20:50.649Z,83.89
2017-07-10T05:21:50.628Z,84.08
2017-07-10T05:22:50.607Z,84.37
2017-07-10T05:23:50.278Z,84.08
2017-07-10T05:24:50.567Z,83.98
2017-07-10T05:25:50.597Z,84.18
2017-07-10T05:26:50.532Z,84.18
2017-07-10T05:27:50.569Z,84.27
2017-07-10T05:28:50.494Z,84.27
2017-07-10T05:29:50.719Z,84.37
2017-07-10T05:30:50.443Z,83.7
2017-07-10T05:31:50.429Z,84.56
2017-07-10T05:32:50.099Z,84.56
2017-07-10T05:33:50.391Z,84.47
2017-07-10T05:34:50.374Z,85.04
2017-07-10T05:35:50.345Z,85.04
2017-07-10T05:36:50.373Z,85.24
2017-07-10T05:37:50.309Z,85.04
2017-07-10T05:38:50.289Z,85.04
2017-07-10T05:39:50.270Z,85.04
2017-07-10T05:40:50.247Z,85.24
2017-07-10T05:41:50.229Z,84.85
2017-07-10T05:42:50.209Z,84.75
2017-07-10T05:43:50.195Z,84.95
2017-07-10T05:44:50.231Z,85.24
2017-07-10T05:45:50.157Z,84.95
2017-07-10T05:46:50.131Z,84.85
2017-07-10T05:47:50.113Z,84.95
2017-07-10T05:48:50.088Z,85.04
2017-07-10T05:49:50.069Z,85.14
2017-07-10T05:50:50.054Z,85.71
2017-07-10T05:51:50.030Z,85.62
2017-07-10T05:52:50.010Z,85.96
2017-07-10T05:53:49.994Z,85.52
2017-07-10T05:54:49.979Z,85.77
2017-07-10T05:55:49.954Z,85.96
2017-07-10T05:56:49.936Z,86.25
2017-07-10T05:57:49.906Z,86.34
2017-07-10T05:58:49.899Z,86.25
2017-07-10T05:59:49.872Z,86.63
2017-07-10T06:00:49.849Z,86.72
2017-07-10T06:01:49.830Z,86.63
2017-07-10T06:02:49.811Z,86.63
2017-07-10T06:03:49.797Z,87.21
2017-07-10T06:04:49.768Z,87.01
2017-07-10T06:05:49.759Z,87.21
2017-07-10T06:06:49.731Z,86.92
2017-07-10T06:07:49.710Z,86.82
2017-07-10T06:08:49.691Z,87.11
2017-07-10T06:09:49.676Z,87.15
2017-07-10T06:10:49.650Z,86.82
2017-07-10T06:11:49.629Z,87.05
2017-07-10T06:12:49.610Z,87.15
2017-07-10T06:13:49.591Z,87.15
2017-07-10T06:14:49.570Z,87.25
2017-07-10T06:15:49.559Z,87.15
2017-07-10T06:16:49.531Z,86.87
2017-07-10T06:17:49.510Z,87.44
2017-07-10T06:18:49.492Z,87.05
2017-07-10T06:19:49.470Z,87.25
2017-07-10T06:20:49.456Z,87.73
2017-07-10T06:21:49.477Z,87.63
2017-07-10T06:22:49.409Z,87.54
2017-07-10T06:23:49.392Z,87.44
2017-07-10T06:24:49.369Z,87.35
2017-07-10T06:25:49.353Z,87.44
2017-07-10T06:26:49.327Z,88.02
2017-07-10T06:27:49.308Z,87.92
2017-07-10T06:28:49.291Z,88.21
2017-07-10T06:29:49.276Z,87.54
2017-07-10T06:30:49.256Z,88.11
2017-07-10T06:31:49.232Z,88.11
2017-07-10T06:32:49.213Z,88.21
2017-07-10T06:33:49.240Z,87.92
2017-07-10T06:34:49.179Z,88.11
2017-07-10T06:35:49.160Z,88.02
2017-07-10T06:36:49.137Z,87.92
2017-07-10T06:37:49.113Z,87.73
2017-07-10T06:38:49.098Z,88.11
2017-07-10T06:39:49.077Z,88.11
2017-07-10T06:40:49.055Z,88.49
2017-07-10T06:41:49.035Z,88.88
2017-07-10T06:42:48.704Z,89.07
2017-07-10T06:43:48.998Z,88.69
2017-07-10T06:44:48.978Z,88.49
2017-07-10T06:45:48.953Z,88.69
2017-07-10T06:46:48.936Z,88.79
2017-07-10T06:47:48.918Z,88.45
2017-07-10T06:48:48.898Z,88.64
2017-07-10T06:49:48.880Z,88.64
2017-07-10T06:50:48.861Z,88.93
2017-07-10T06:51:48.835Z,89.22
2017-07-10T06:52:48.817Z,89.02
2017-07-10T06:53:48.801Z,89.4
2017-07-10T06:54:48.834Z,89.31
2017-07-10T06:55:48.761Z,89.22
2017-07-10T06:56:48.749Z,89.4
2017-07-10T06:57:48.715Z,89.4
2017-07-10T06:58:48.392Z,89.6
2017-07-10T06:59:48.676Z,89.83
2017-07-10T07:00:48.659Z,89.54
2017-07-10T07:01:48.638Z,89.45
2017-07-10T07:02:48.312Z,89.64
2017-07-10T07:03:48.600Z,89.64
2017-07-10T07:04:48.582Z,89.36
2017-07-10T07:05:48.665Z,89.5
2017-07-10T07:06:48.545Z,89.5
2017-07-10T07:07:48.534Z,89.59
2017-07-10T07:08:48.512Z,89.5
2017-07-10T07:09:48.486Z,89.4
2017-07-10T07:10:48.469Z,88.92
2017-07-10T07:11:48.447Z,88.63
2017-07-10T07:12:48.433Z,89.11
2017-07-10T07:13:48.413Z,88.77
2017-07-10T07:14:48.400Z,88.87
2017-07-10T07:15:48.423Z,88.57
2017-07-10T07:16:48.353Z,87.71
2017-07-10T07:17:48.345Z,87.9
2017-07-10T07:18:48.365Z,88.1
2017-07-10T07:19:48.298Z,88.39
2017-07-10T07:20:48.279Z,88.29
2017-07-10T07:21:48.264Z,88.1
2017-07-10T07:22:48.244Z,88.19
2017-07-10T07:23:48.215Z,88.39
2017-07-10T07:24:48.203Z,88.39
2017-07-10T07:25:48.192Z,88.29
2017-07-10T07:26:48.165Z,88.57
2017-07-10T07:27:48.144Z,88.19
2017-07-10T07:28:48.125Z,88.1
2017-07-10T07:29:48.109Z,88.29
2017-07-10T07:30:48.093Z,88.39
2017-07-10T07:31:48.089Z,88.19
2017-07-10T07:32:48.047Z,88.39
2017-07-10T07:33:48.033Z,88.39
2017-07-10T07:34:48.017Z,88.39
2017-07-10T07:35:47.990Z,88.19
2017-07-10T07:36:47.974Z,88.43
2017-07-10T07:37:47.960Z,88.19
2017-07-10T07:38:47.939Z,88.29
2017-07-10T07:39:47.922Z,88.43
2017-07-10T07:40:47.959Z,88.43
2017-07-10T07:41:47.893Z,88.39
2017-07-10T07:42:47.866Z,88.29
2017-07-10T07:43:47.849Z,88.19
2017-07-10T07:44:47.577Z,88.39
2017-07-10T07:45:48.906Z,88.19
2017-07-10T07:46:47.793Z,88.39
2017-07-10T07:47:47.771Z,88.39
2017-07-10T07:48:47.751Z,88.1
2017-07-10T07:49:47.734Z,88.39
2017-07-10T07:50:47.720Z,88.39
2017-07-10T07:51:47.750Z,88.19
2017-07-10T07:52:47.676Z,88
2017-07-10T07:53:47.657Z,88.39
2017-07-10T07:54:47.639Z,88.39
2017-07-10T07:55:47.768Z,88.19
2017-07-10T07:56:47.603Z,88.57
2017-07-10T07:57:47.584Z,88.39
2017-07-10T07:58:47.561Z,88.1
2017-07-10T07:59:47.549Z,88.39
2017-07-10T08:00:47.526Z,88.39
2017-07-10T08:01:47.503Z,88.29
2017-07-10T08:02:47.483Z,88.29
2017-07-10T08:03:47.521Z,88.67
2017-07-10T08:04:47.456Z,88.77
2017-07-10T08:05:47.434Z,88
2017-07-10T08:06:47.415Z,88.67
2017-07-10T08:07:47.395Z,88.77
2017-07-10T08:08:47.384Z,88.77
2017-07-10T08:09:47.410Z,88.57
2017-07-10T08:10:47.335Z,88.48
2017-07-10T08:11:47.318Z,88.57
2017-07-10T08:12:47.301Z,88.77
2017-07-10T08:13:47.285Z,87.9
2017-07-10T08:14:47.262Z,87.9
2017-07-10T08:15:47.245Z,88.48
2017-07-10T08:16:47.333Z,88.57
2017-07-10T08:17:47.210Z,87.71
2017-07-10T08:18:47.195Z,88.1
2017-07-10T08:19:47.168Z,88.77
2017-07-10T08:20:47.159Z,88.19
2017-07-10T08:21:47.135Z,88.29
2017-07-10T08:22:47.111Z,88.39
2017-07-10T08:23:47.097Z,88.19
2017-07-10T08:24:47.079Z,88.29
2017-07-10T08:25:47.061Z,88.19
2017-07-10T08:26:47.037Z,88.33
2017-07-10T08:27:47.040Z,88.33
2017-07-10T08:28:47.003Z,88.33
2017-07-10T08:29:47.090Z,87.9
2017-07-10T08:30:46.970Z,88.19
2017-07-10T08:31:46.941Z,88.29
2017-07-10T08:32:46.932Z,88.29
2017-07-10T08:33:46.918Z,88.1
2017-07-10T08:34:46.885Z,88.14
2017-07-10T08:35:46.874Z,88.14
2017-07-10T08:36:46.862Z,88.24
2017-07-10T08:37:47.077Z,88.33
2017-07-10T08:38:46.812Z,88.33
2017-07-10T08:39:47.049Z,88.43
2017-07-10T08:40:46.827Z,87.76
2017-07-10T08:41:46.760Z,88.24
2017-07-10T08:42:46.740Z,88.43
2017-07-10T08:43:46.720Z,88.43
2017-07-10T08:44:46.701Z,88.62
2017-07-10T08:45:46.674Z,88.62
2017-07-10T08:46:46.660Z,88.04
2017-07-10T08:47:46.342Z,88.33
2017-07-10T08:48:46.620Z,88.24
2017-07-10T08:49:46.615Z,88.43
2017-07-10T08:50:46.277Z,87.76
2017-07-10T08:51:46.582Z,87.95
2017-07-10T08:52:46.751Z,88.04
2017-07-10T08:53:46.527Z,87.95
2017-07-10T08:54:46.528Z,87.56
2017-07-10T08:55:46.696Z,87.85
2017-07-10T08:56:46.475Z,87.85
2017-07-10T08:57:46.476Z,87.95
2017-07-10T08:58:46.434Z,87.9
2017-07-10T08:59:46.481Z,88.04
2017-07-10T09:00:46.395Z,87.66
2017-07-10T09:01:46.395Z,87.7
2017-07-10T09:02:46.403Z,87.12
2017-07-10T09:03:46.370Z,87.41
2017-07-10T09:04:46.321Z,87.03
2017-07-10T09:05:46.356Z,87.41
2017-07-10T09:06:46.297Z,87.22
2017-07-10T09:07:46.270Z,87.03
2017-07-10T09:08:46.249Z,86.74
2017-07-10T09:09:46.236Z,86.74
2017-07-10T09:10:46.277Z,86.65
2017-07-10T09:11:46.215Z,86.88
2017-07-10T09:12:46.224Z,86.98
2017-07-10T09:13:46.165Z,86.49
2017-07-10T09:14:46.147Z,86.11
2017-07-10T09:15:46.133Z,85.91
2017-07-10T09:16:46.170Z,85.91
2017-07-10T09:17:46.103Z,85.82
2017-07-10T09:18:46.078Z,85.28
2017-07-10T09:19:46.063Z,85.19
2017-07-10T09:20:46.029Z,84.8
2017-07-10T09:21:46.065Z,84.7
2017-07-10T09:22:45.993Z,84.52
2017-07-10T09:23:46.027Z,83.94
2017-07-10T09:24:45.959Z,84.07
2017-07-10T09:25:45.945Z,84.27
2017-07-10T09:26:45.928Z,83.98
2017-07-10T09:27:45.910Z,83.98
2017-07-10T09:28:45.892Z,83.73
2017-07-10T09:29:45.877Z,83.44
2017-07-10T09:30:45.857Z,83.05
2017-07-10T09:31:46.094Z,83.73
2017-07-10T09:32:45.819Z,83.63
2017-07-10T09:33:45.807Z,83.73
2017-07-10T09:34:45.792Z,83.63
2017-07-10T09:35:45.773Z,82.96
2017-07-10T09:36:45.755Z,83.25
2017-07-10T09:37:45.737Z,83.05
2017-07-10T09:38:45.722Z,82.67
2017-07-10T09:39:45.392Z,82.09
2017-07-10T09:40:45.374Z,81.84
2017-07-10T09:41:45.677Z,81.45
2017-07-10T09:42:45.647Z,81.16
2017-07-10T09:43:45.640Z,80.58
2017-07-10T09:44:45.612Z,80.87
2017-07-10T09:45:45.604Z,81.07
2017-07-10T09:46:45.593Z,80.49
2017-07-10T09:47:45.574Z,80.58
2017-07-10T09:48:45.657Z,80.39
2017-07-10T09:49:45.225Z,80.24
2017-07-10T09:50:45.526Z,80.05
2017-07-10T09:51:45.502Z,79.95
2017-07-10T09:52:45.483Z,79.75
2017-07-10T09:53:45.483Z,79.37
2017-07-10T09:54:45.505Z,79.37
2017-07-10T09:55:45.436Z,79.08
2017-07-10T09:56:45.421Z,78.69
2017-07-10T09:57:45.400Z,78.5
2017-07-10T09:58:45.389Z,78.64
2017-07-10T09:59:45.375Z,78.25
2017-07-10T10:00:45.354Z,78.09
2017-07-10T10:01:45.338Z,76.64
2017-07-10T10:02:45.322Z,76.39
2017-07-10T10:03:45.309Z,76.1
2017-07-10T10:04:45.453Z,75.75
2017-07-10T10:05:45.274Z,74.73
2017-07-10T10:06:45.264Z,74.57
2017-07-10T10:07:45.256Z,73.31
2017-07-10T10:08:45.240Z,72.47
2017-07-10T10:09:45.213Z,71.8
2017-07-10T10:10:45.202Z,71.64
2017-07-10T10:11:45.192Z,70.67
2017-07-10T10:12:45.232Z,69.57
2017-07-10T10:13:45.274Z,69.02
2017-07-10T10:14:45.157Z,68.15
2017-07-10T10:15:45.144Z,67.47
2017-07-10T10:16:45.133Z,67.89
2017-07-10T10:17:45.139Z,66.92
2017-07-10T10:18:44.801Z,64.26
2017-07-10T10:19:45.102Z,62.61
2017-07-10T10:20:45.450Z,62.51
2017-07-10T10:21:45.082Z,61.83
2017-07-10T10:22:45.119Z,61.18
2017-07-10T10:23:45.060Z,60.96
2017-07-10T10:24:45.349Z,62.03
2017-07-10T10:25:45.042Z,61.71
2017-07-10T10:26:44.722Z,61.64
2017-07-10T10:27:45.027Z,60.86
2017-07-10T10:28:45.008Z,60.5
2017-07-10T10:29:45.002Z,60.02
2017-07-10T10:30:45.237Z,59.56
2017-07-10T10:31:44.989Z,59.36
2017-07-10T10:32:45.070Z,58.29
2017-07-10T10:33:45.215Z,58.32
2017-07-10T10:34:44.949Z,58.71
2017-07-10T10:35:44.951Z,58.81
2017-07-10T10:36:44.936Z,58.69
2017-07-10T10:37:44.928Z,58.49
2017-07-10T10:38:44.915Z,58.95
2017-07-10T10:39:44.916Z,60.28
2017-07-10T10:40:44.901Z,60.05
2017-07-10T10:41:45.448Z,60.8
2017-07-10T10:42:44.889Z,61.38
2017-07-10T10:43:44.924Z,61.45
2017-07-10T10:44:44.863Z,63.01
2017-07-10T10:45:44.855Z,63.17
2017-07-10T10:46:44.835Z,63.46
2017-07-10T10:47:44.827Z,63.56
2017-07-10T10:48:45.620Z,63.75
2017-07-10T10:49:44.998Z,63.91
2017-07-10T10:50:45.795Z,63.82
2017-07-10T10:51:44.780Z,64.59
2017-07-10T10:52:44.766Z,64.98
2017-07-10T10:53:44.759Z,64.75
2017-07-10T10:54:44.432Z,65.24
2017-07-10T10:55:44.738Z,65.24
2017-07-10T10:56:44.721Z,65.43
2017-07-10T10:57:44.701Z,65.34
2017-07-10T10:58:44.692Z,65.43
2017-07-10T10:59:44.681Z,65.92
2017-07-10T11:00:44.729Z,66.02
2017-07-10T11:01:44.656Z,65.92
2017-07-10T11:02:44.742Z,65.72
2017-07-10T11:03:44.628Z,66.3
2017-07-10T11:04:44.617Z,66.5
2017-07-10T11:05:44.606Z,66.4
2017-07-10T11:06:44.585Z,66.5
2017-07-10T11:07:44.590Z,66.6
2017-07-10T11:08:44.564Z,65.75
2017-07-10T11:09:44.553Z,66.02
2017-07-10T11:10:44.635Z,65.63
2017-07-10T11:11:44.524Z,65.63
2017-07-10T11:12:44.755Z,66.2
2017-07-10T11:13:44.488Z,65.82
2017-07-10T11:14:44.483Z,66.2
2017-07-10T11:15:44.468Z,66.3
2017-07-10T11:16:44.506Z,66.02
2017-07-10T11:17:44.641Z,66.69
2017-07-10T11:18:44.430Z,67.14
2017-07-10T11:19:44.411Z,67.4
2017-07-10T11:20:44.416Z,67.5
2017-07-10T11:21:44.388Z,68.37
2017-07-10T11:22:44.368Z,68.37
2017-07-10T11:23:44.360Z,68.47
2017-07-10T11:24:44.341Z,68.66
2017-07-10T11:25:44.334Z,69.05
2017-07-10T11:26:44.315Z,68.18
2017-07-10T11:27:44.300Z,68.66
2017-07-10T11:28:44.290Z,68.56
2017-07-10T11:29:43.957Z,68.08
2017-07-10T11:30:44.258Z,67.69
2017-07-10T11:31:44.240Z,68.02
2017-07-10T11:32:44.228Z,67.82
2017-07-10T11:33:44.210Z,67.53
2017-07-10T11:34:44.243Z,67.76
2017-07-10T11:35:44.180Z,67.57
2017-07-10T11:36:44.170Z,66.69
2017-07-10T11:37:44.154Z,67.27
2017-07-10T11:38:44.140Z,66.6
2017-07-10T11:39:44.125Z,66.82
2017-07-10T11:40:44.110Z,66.11
2017-07-10T11:41:44.103Z,65.72
2017-07-10T11:42:44.086Z,65.63
2017-07-10T11:43:44.264Z,66.2
2017-07-10T11:44:44.047Z,66.02
2017-07-10T11:45:44.037Z,66.02
2017-07-10T11:46:44.022Z,66.4
2017-07-10T11:47:44.073Z,66.2
2017-07-10T11:48:43.991Z,66.2
2017-07-10T11:49:43.990Z,65.92
2017-07-10T11:50:43.964Z,66.2
2017-07-10T11:51:43.949Z,66.5
2017-07-10T11:52:43.940Z,66.5
2017-07-10T11:53:43.922Z,66.47
2017-07-10T11:54:43.919Z,67.14
2017-07-10T11:55:43.895Z,67.53
2017-07-10T11:56:43.887Z,67.82
2017-07-10T11:57:43.866Z,68.08
2017-07-10T11:58:43.855Z,68.76
2017-07-10T11:59:43.839Z,68.56
2017-07-10T12:00:43.827Z,68.76
2017-07-10T12:01:43.802Z,69.24
2017-07-10T12:02:43.789Z,69.05
2017-07-10T12:03:43.782Z,69.24
2017-07-10T12:04:43.761Z,68.56
2017-07-10T12:05:43.744Z,69.21
2017-07-10T12:06:43.730Z,68.43
2017-07-10T12:07:43.722Z,69.43
2017-07-10T12:08:43.712Z,69.15
2017-07-10T12:09:43.895Z,69.63
2017-07-10T12:10:43.670Z,69.5
2017-07-10T12:11:43.654Z,69.34
2017-07-10T12:12:43.640Z,69.5
2017-07-10T12:13:43.721Z,69.5
2017-07-10T12:14:43.501Z,69.21
2017-07-10T12:15:43.593Z,69.5
2017-07-10T12:16:43.583Z,69.34
2017-07-10T12:17:43.567Z,69.69
2017-07-10T12:18:43.542Z,69.53
2017-07-10T12:19:43.528Z,69.73
2017-07-10T12:20:43.511Z,69.34
2017-07-10T12:21:43.500Z,69.43
2017-07-10T12:22:43.483Z,69.53
2017-07-10T12:23:43.518Z,68.85
2017-07-10T12:24:43.504Z,68.37
2017-07-10T12:25:43.441Z,68.95
2017-07-10T12:26:43.422Z,69.24
2017-07-10T12:27:43.406Z,68.47
2017-07-10T12:28:43.407Z,68.37
2017-07-10T12:29:43.382Z,68.4
2017-07-10T12:30:43.361Z,67.66
2017-07-10T12:31:43.403Z,67.08
2017-07-10T12:32:43.392Z,67.47
2017-07-10T12:33:43.320Z,67.27
2017-07-10T12:34:43.300Z,67.18
2017-07-10T12:35:43.281Z,67.08
2017-07-10T12:36:43.268Z,66.6
2017-07-10T12:37:43.258Z,66.6
2017-07-10T12:38:43.245Z,66.82
2017-07-10T12:39:43.233Z,65.85
2017-07-10T12:40:43.219Z,66.05
2017-07-10T12:41:43.209Z,65.75
2017-07-10T12:42:43.203Z,65.08
2017-07-10T12:43:43.284Z,65.17
2017-07-10T12:44:43.159Z,64.59
2017-07-10T12:45:43.139Z,64.88
2017-07-10T12:46:43.181Z,64.78
2017-07-10T12:47:43.131Z,65.56
2017-07-10T12:48:43.103Z,65.82
2017-07-10T12:49:43.083Z,66.02
2017-07-10T12:50:43.107Z,65.63
2017-07-10T12:51:43.112Z,65.63
2017-07-10T12:52:43.046Z,65.43
2017-07-10T12:53:43.027Z,65.72
2017-07-10T12:54:43.014Z,65.89
2017-07-10T12:55:42.999Z,66.75